Time;durP1;ratioP1;P1;durP2;ratioP2;P2;SDS_P1;SDS_P2;PMS_P1;PMS_P2;Temp;Humidity;BMP_temperature;BMP_pressure;BME280_temperature;BME280_humidity;BME280_pressure;Samples;Min_cycle;Max_cycle;Signal;HPM_P1;HPM_P2
2023/01/27 00:00:14;;;;;;;0.40;0.10;;;;;;;-0.27;69.61;102760.91;4943493;28;20425;-74
2023/01/27 00:02:42;;;;;;;1.45;0.10;;;;;;;-0.31;70.04;102762.44;4938162;28;20500;-74
2023/01/27 00:05:11;;;;;;;0.45;0.10;;;;;;;-0.28;70.18;102767.75;4941903;28;20051;-74
2023/01/27 00:07:38;;;;;;;0.28;0.10;;;;;;;-0.37;70.20;102746.69;4940480;28;20439;-73
2023/01/27 00:10:06;;;;;;;0.38;0.10;;;;;;;-0.29;70.31;102759.94;4942056;28;20047;-74
2023/01/27 00:15:19;;;;;;;0.20;0.10;;;;;;;-0.32;69.98;102770.03;4940716;28;20062;-74
2023/01/27 00:17:46;;;;;;;1.85;0.20;;;;;;;-0.33;70.60;102779.44;4942202;28;20579;-74
2023/01/27 00:24:34;;;;;;;0.40;0.10;;;;;;;-0.34;70.12;102777.66;4940585;28;20058;-74
2023/01/27 00:25:49;;;;;;;0.57;0.10;;;;;;;-0.35;69.59;102786.16;4937896;28;20110;-74
2023/01/27 00:28:21;;;;;;;3.53;0.20;;;;;;;-0.39;70.05;102781.66;4944033;28;20047;-74
2023/01/27 00:30:50;;;;;;;2.28;0.75;;;;;;;-0.35;70.08;102787.84;4942104;28;20043;-74
2023/01/27 00:33:25;;;;;;;0.90;0.20;;;;;;;-0.36;69.88;102792.09;4942748;28;20046;-73
2023/01/27 00:35:58;;;;;;;1.10;0.20;;;;;;;-0.38;69.91;102785.09;4941288;28;20501;-74
2023/01/27 00:38:25;;;;;;;0.90;0.10;;;;;;;-0.37;70.38;102782.63;4940476;28;20063;-75
2023/01/27 00:43:42;;;;;;;0.70;0.10;;;;;;;-0.39;70.40;102794.47;4931563;28;20063;-74
2023/01/27 00:46:10;;;;;;;0.80;0.10;;;;;;;-0.39;70.34;102793.59;4943475;28;20053;-74
2023/01/27 00:48:37;;;;;;;0.30;0.10;;;;;;;-0.39;70.60;102796.16;4943155;28;20052;-74
2023/01/27 00:51:04;;;;;;;1.10;0.10;;;;;;;-0.41;70.36;102790.94;4941801;28;20087;-74
2023/01/27 00:53:31;;;;;;;1.90;0.10;;;;;;;-0.48;70.23;102784.56;4941308;28;20424;-73
2023/01/27 00:55:58;;;;;;;0.10;0.00;;;;;;;-0.42;70.55;102794.31;4943945;28;20047;-74
2023/01/27 00:58:25;;;;;;;0.13;0.10;;;;;;;-0.46;70.00;102787.19;4945527;28;20054;-74
2023/01/27 01:00:53;;;;;;;0.30;0.15;;;;;;;-0.42;70.52;102801.13;4942808;28;20427;-73
2023/01/27 01:03:23;;;;;;;1.80;0.10;;;;;;;-0.42;70.72;102799.44;4943390;28;20518;-74
2023/01/27 01:05:50;;;;;;;0.10;0.10;;;;;;;-0.46;70.24;102787.19;4943278;29;20058;-74
2023/01/27 01:08:17;;;;;;;0.25;0.05;;;;;;;-0.48;70.62;102788.81;4941654;28;20044;-73
2023/01/27 01:10:44;;;;;;;2.05;0.10;;;;;;;-0.42;70.84;102796.00;4942516;28;20139;-75
2023/01/27 01:13:11;;;;;;;0.75;0.00;;;;;;;-0.44;70.43;102790.75;4938778;28;20047;-74
2023/01/27 01:15:39;;;;;;;0.13;0.05;;;;;;;-0.51;70.19;102755.25;4940430;28;20130;-74
2023/01/27 01:18:07;;;;;;;0.80;0.10;;;;;;;-0.43;70.45;102781.38;4942514;28;20123;-74
2023/01/27 01:20:39;;;;;;;1.77;0.00;;;;;;;-0.44;70.30;102790.75;4942049;28;20051;-74
2023/01/27 01:23:06;;;;;;;2.53;0.10;;;;;;;-0.52;70.68;102771.44;4940616;28;20420;-74
2023/01/27 01:25:34;;;;;;;0.20;0.10;;;;;;;-0.45;70.14;102791.56;4938525;28;20552;-75
2023/01/27 01:28:02;;;;;;;0.22;0.15;;;;;;;-0.48;70.09;102783.69;4940953;29;20130;-74
2023/01/27 01:30:29;;;;;;;0.38;0.10;;;;;;;-0.44;70.19;102784.75;4940324;28;20051;-74
2023/01/27 01:32:57;;;;;;;1.00;0.10;;;;;;;-0.45;69.99;102773.59;4940281;28;20047;-73
2023/01/27 01:35:25;;;;;;;0.95;0.10;;;;;;;-0.50;70.13;102765.59;4939641;28;20230;-74
2023/01/27 01:37:53;;;;;;;0.75;0.20;;;;;;;-0.46;70.15;102776.94;4940054;28;20055;-74
2023/01/27 01:40:21;;;;;;;0.20;0.10;;;;;;;-0.45;70.27;102778.72;4945317;29;20043;-74
2023/01/27 01:42:54;;;;;;;0.20;0.10;;;;;;;-0.47;69.87;102775.16;4938225;28;20054;-74
2023/01/27 01:45:50;;;;;;;0.10;0.00;;;;;;;-0.44;70.13;102771.91;4942110;29;20049;-74
2023/01/27 01:48:29;;;;;;;0.43;0.30;;;;;;;-0.46;70.37;102774.38;4942657;28;20053;-74
2023/01/27 01:51:00;;;;;;;2.55;0.25;;;;;;;-0.49;70.33;102771.63;4940325;29;20051;-73
2023/01/27 01:53:36;;;;;;;0.10;0.10;;;;;;;-0.48;70.34;102765.72;4940934;29;20131;-74
2023/01/27 01:56:06;;;;;;;;;;;;;;;-0.50;70.90;102769.84;4930557;28;20039;-74
2023/01/27 01:58:34;;;;;;;0.30;0.00;;;;;;;-0.51;70.44;102773.22;4939165;28;20140;-75
2023/01/27 02:01:03;;;;;;;1.58;0.08;;;;;;;-0.55;70.16;102761.88;4941112;28;20670;-74
2023/01/27 02:03:31;;;;;;;0.10;0.05;;;;;;;-0.55;70.51;102758.44;4940536;28;20055;-75
2023/01/27 02:05:58;;;;;;;0.10;0.00;;;;;;;-0.55;70.12;102755.88;4940174;28;20061;-74
2023/01/27 02:08:30;;;;;;;0.65;0.10;;;;;;;-0.58;70.41;102760.81;4939385;28;20057;-74
2023/01/27 02:10:57;;;;;;;2.17;0.10;;;;;;;-0.56;70.59;102772.94;4936130;28;20424;-73
2023/01/27 02:13:24;;;;;;;1.85;0.30;;;;;;;-0.61;70.87;102765.78;4938731;28;20047;-74
2023/01/27 02:15:53;;;;;;;3.90;0.20;;;;;;;-0.62;70.47;102772.59;4941472;28;20058;-74
2023/01/27 02:18:20;;;;;;;0.47;0.00;;;;;;;-0.60;70.90;102777.81;4938155;28;20047;-74
2023/01/27 02:20:50;;;;;;;0.10;0.00;;;;;;;-0.65;70.50;102766.41;4940015;28;20470;-74
2023/01/27 02:23:27;;;;;;;0.10;0.10;;;;;;;-0.62;71.05;102779.41;4939375;28;20511;-73
2023/01/27 02:26:00;;;;;;;0.88;0.10;;;;;;;-0.63;70.50;102777.63;4940661;28;20048;-74
2023/01/27 02:28:28;;;;;;;1.75;0.00;;;;;;;-0.68;70.31;102770.56;4935343;28;20055;-73
2023/01/27 02:30:56;;;;;;;1.45;0.03;;;;;;;-0.66;70.65;102788.59;4931799;28;20047;-74
2023/01/27 02:33:23;;;;;;;0.22;0.10;;;;;;;-0.73;70.58;102787.34;4934925;28;20061;-77
2023/01/27 02:35:58;;;;;;;0.82;0.03;;;;;;;-0.68;70.29;102800.47;4934623;28;20055;-74
2023/01/27 02:38:29;;;;;;;0.50;0.10;;;;;;;-0.69;70.73;102811.50;4934659;28;20051;-73
2023/01/27 02:41:01;;;;;;;0.10;0.10;;;;;;;-0.70;70.87;102810.63;4936679;28;20522;-74
2023/01/27 02:43:28;;;;;;;0.10;0.08;;;;;;;-0.70;70.72;102808.06;4933405;28;20051;-74
2023/01/27 02:45:55;;;;;;;1.73;0.30;;;;;;;-0.76;70.62;102812.81;4936500;28;20049;-73
2023/01/27 02:48:22;;;;;;;1.08;0.10;;;;;;;-0.71;70.66;102821.69;4933204;28;20069;-74
2023/01/27 02:50:49;;;;;;;0.10;0.10;;;;;;;-0.70;70.79;102822.56;4936392;28;20512;-73
2023/01/27 02:53:16;;;;;;;1.70;0.10;;;;;;;-0.72;70.79;102819.91;4935600;28;20047;-74
2023/01/27 02:55:43;;;;;;;0.00;0.00;;;;;;;-0.68;70.33;102826.13;4933443;28;20047;-73
2023/01/27 02:58:14;;;;;;;1.65;0.10;;;;;;;-0.68;70.61;102827.00;4935664;28;20059;-74
2023/01/27 03:00:41;;;;;;;2.75;0.05;;;;;;;-0.68;70.59;102831.25;4936999;28;20517;-75
2023/01/27 03:03:08;;;;;;;1.08;0.10;;;;;;;-0.69;70.69;102829.47;4938298;28;20069;-74
2023/01/27 03:05:35;;;;;;;0.10;0.00;;;;;;;-0.69;70.92;102825.22;4937804;28;20058;-74
2023/01/27 03:08:02;;;;;;;0.88;0.10;;;;;;;-0.70;70.40;102831.16;4941806;28;20518;-73
2023/01/27 03:10:29;;;;;;;3.10;0.10;;;;;;;-0.70;70.82;102832.84;4943240;28;20051;-74
2023/01/27 03:12:56;;;;;;;0.20;0.00;;;;;;;-0.73;70.74;102827.53;4924359;28;20681;-74
2023/01/27 03:18:09;;;;;;;;;;;;;;;-0.73;71.12;102814.69;4941350;28;20191;-73
2023/01/27 03:20:36;;;;;;;0.80;0.10;;;;;;;-0.85;70.91;102802.03;4942708;28;19926;-73
2023/01/27 03:23:04;;;;;;;0.65;0.03;;;;;;;-0.74;70.99;102821.50;4944492;28;20048;-74
2023/01/27 03:25:31;;;;;;;0.10;0.03;;;;;;;-0.76;70.87;102823.09;4946138;28;20040;-74
2023/01/27 03:27:58;;;;;;;0.20;0.10;;;;;;;-0.76;70.78;102817.09;4939868;28;20473;-74
2023/01/27 03:30:27;;;;;;;0.30;0.10;;;;;;;-0.77;70.54;102828.13;4943969;28;20495;-73
2023/01/27 03:32:54;;;;;;;0.47;0.10;;;;;;;-0.79;71.11;102820.34;4943900;28;20092;-73
2023/01/27 03:35:22;;;;;;;0.10;0.10;;;;;;;-0.84;71.16;102818.28;4947593;28;20072;-73
2023/01/27 03:46:21;;;;;;;1.40;1.05;;;;;;;-0.84;70.52;102818.28;4938471;28;20062;-75
2023/01/27 03:48:52;;;;;;;2.40;0.03;;;;;;;-0.85;70.71;102816.50;4945248;29;20051;-75
2023/01/27 03:51:20;;;;;;;0.85;0.10;;;;;;;-0.86;71.17;102807.03;4945281;28;20047;-75
2023/01/27 03:53:47;;;;;;;0.30;0.10;;;;;;;-0.87;70.93;102806.16;4940672;28;20139;-76
2023/01/27 03:56:16;;;;;;;2.20;0.10;;;;;;;-0.87;70.75;102812.97;4946051;28;20435;-75
2023/01/27 03:58:44;;;;;;;0.20;0.00;;;;;;;-0.89;70.81;102815.44;4941845;28;20420;-79
2023/01/27 04:01:17;;;;;;;0.30;0.10;;;;;;;-0.92;70.78;102811.00;4942170;28;20070;-75
2023/01/27 04:09:20;;;;;;;0.45;0.10;;;;;;;-0.98;70.95;102810.63;4947331;28;20809;-75
2023/01/27 04:11:57;;;;;;;1.48;0.10;;;;;;;-1.02;71.13;102811.25;4946691;28;20672;-76
2023/01/27 04:14:29;;;;;;;0.10;0.00;;;;;;;-1.02;70.65;102816.38;4943631;28;20508;-76
2023/01/27 04:17:00;;;;;;;0.68;0.05;;;;;;;-1.04;70.98;102815.38;4940800;28;20057;-75
2023/01/27 04:19:27;;;;;;;0.15;0.00;;;;;;;-1.04;70.70;102811.94;4945117;28;20058;-75
2023/01/27 04:21:54;;;;;;;0.20;0.10;;;;;;;-1.04;70.60;102817.06;4945532;29;20070;-75
2023/01/27 04:24:24;;;;;;;1.48;0.10;;;;;;;-1.13;71.03;102799.44;4942402;28;20039;-75
2023/01/27 04:26:54;;;;;;;0.05;0.00;;;;;;;-1.07;70.74;102820.34;4945152;28;20054;-76
2023/01/27 04:29:22;;;;;;;0.68;0.13;;;;;;;-1.08;70.66;102822.78;4941766;28;20047;-75
2023/01/27 04:31:49;;;;;;;0.40;0.10;;;;;;;-1.09;70.59;102826.16;4943202;28;20051;-75
2023/01/27 04:34:18;;;;;;;0.20;0.10;;;;;;;-1.10;70.61;102840.66;4939648;28;20059;-75
2023/01/27 04:36:46;;;;;;;2.85;0.10;;;;;;;-1.11;70.93;102838.91;4948727;28;20054;-75
2023/01/27 04:39:14;;;;;;;1.48;0.10;;;;;;;-1.11;70.96;102843.13;4943987;28;20567;-75
2023/01/27 04:41:41;;;;;;;0.75;0.10;;;;;;;-1.14;70.85;102844.72;4942002;28;20058;-76
2023/01/27 04:44:09;;;;;;;0.70;0.00;;;;;;;-1.17;70.97;102843.63;4946736;28;20039;-75
2023/01/27 04:46:36;;;;;;;0.30;0.10;;;;;;;-1.15;70.46;102842.03;4943417;28;20051;-75
2023/01/27 04:49:03;;;;;;;2.83;0.10;;;;;;;-1.21;70.81;102842.56;4941685;28;20062;-75
2023/01/27 04:51:33;;;;;;;0.35;0.10;;;;;;;-1.16;71.09;102851.44;4944676;28;20054;-76
2023/01/27 04:54:02;;;;;;;1.60;0.32;;;;;;;-1.18;71.42;102847.88;4941506;28;20530;-75
2023/01/27 04:56:31;;;;;;;0.10;0.05;;;;;;;-1.20;71.02;102841.75;4944808;28;20048;-75
2023/01/27 04:58:59;;;;;;;0.15;0.10;;;;;;;-1.20;70.70;102848.56;4941288;28;20388;-75
2023/01/27 05:01:26;;;;;;;0.95;0.25;;;;;;;-1.22;71.08;102851.03;4939848;28;20054;-75
2023/01/27 05:03:53;;;;;;;3.78;0.15;;;;;;;-1.24;71.10;102850.06;4943778;28;20047;-75
2023/01/27 05:06:20;;;;;;;0.05;0.00;;;;;;;-1.26;70.90;102851.63;4945624;28;20530;-75
2023/01/27 05:08:48;;;;;;;0.03;0.00;;;;;;;-1.29;70.89;102843.75;4940296;28;20053;-75
2023/01/27 05:11:16;;;;;;;0.38;0.00;;;;;;;-1.26;71.31;102849.06;4941850;28;20066;-75
2023/01/27 05:13:43;;;;;;;1.25;0.10;;;;;;;-1.28;71.05;102849.75;4942509;28;20055;-75
2023/01/27 05:16:13;;;;;;;0.10;0.08;;;;;;;-1.27;70.91;102854.09;4939766;28;20138;-76
2023/01/27 05:18:41;;;;;;;1.77;0.10;;;;;;;-1.28;71.27;102855.78;4943824;28;20086;-75
2023/01/27 05:21:11;;;;;;;0.40;0.10;;;;;;;-1.28;71.00;102860.00;4940972;28;20051;-75
2023/01/27 05:23:38;;;;;;;0.20;0.10;;;;;;;-1.30;70.72;102865.06;4944212;28;20057;-75
2023/01/27 05:26:11;;;;;;;0.28;0.10;;;;;;;-1.31;70.57;102862.38;4945872;28;20055;-75
2023/01/27 05:28:39;;;;;;;0.65;0.00;;;;;;;-1.38;71.00;102853.44;4943050;28;20487;-75
2023/01/27 05:31:08;;;;;;;0.20;0.10;;;;;;;-1.34;71.04;102857.94;4939582;28;20601;-75
2023/01/27 05:33:36;;;;;;;0.10;0.10;;;;;;;-1.35;70.81;102866.44;4942679;28;20118;-75
2023/01/27 05:36:05;;;;;;;1.00;0.10;;;;;;;-1.40;70.89;102858.44;4940703;28;20044;-75
2023/01/27 05:38:32;;;;;;;0.20;0.10;;;;;;;-1.38;71.25;102873.94;4945245;28;20060;-75
2023/01/27 05:41:02;;;;;;;1.75;0.10;;;;;;;-1.41;71.13;102874.63;4943220;28;20070;-75
2023/01/27 05:43:32;;;;;;;1.77;0.10;;;;;;;-1.43;71.23;102873.63;4941788;28;20058;-76
2023/01/27 05:46:04;;;;;;;1.75;0.43;;;;;;;-1.44;70.57;102878.66;4943928;28;20047;-76
2023/01/27 05:48:31;;;;;;;1.30;0.10;;;;;;;-1.46;71.01;102882.81;4934489;28;20414;-75
2023/01/27 05:50:59;;;;;;;0.22;0.10;;;;;;;-1.51;71.30;102879.94;4939478;28;20055;-75
2023/01/27 05:53:26;;;;;;;0.95;0.10;;;;;;;-1.51;71.27;102882.50;4939549;28;20504;-76
2023/01/27 05:55:53;;;;;;;0.10;0.10;;;;;;;-1.51;71.21;102882.50;4941688;28;20052;-75
2023/01/27 05:58:21;;;;;;;0.28;0.10;;;;;;;-1.50;70.70;102888.53;4939463;28;20043;-75
2023/01/27 06:00:50;;;;;;;0.32;0.10;;;;;;;-1.54;70.80;102882.28;4941564;29;20159;-75
2023/01/27 06:03:17;;;;;;;0.22;0.10;;;;;;;-1.52;70.75;102885.84;4939608;28;20401;-75
2023/01/27 06:05:52;;;;;;;0.45;0.10;;;;;;;-1.51;71.01;102881.63;4944370;28;20046;-75
2023/01/27 06:08:19;;;;;;;0.73;0.10;;;;;;;-1.53;71.18;102880.66;4941019;29;20052;-75
2023/01/27 06:10:46;;;;;;;1.55;0.17;;;;;;;-1.59;71.14;102870.88;4939691;29;20057;-75
2023/01/27 06:13:13;;;;;;;0.20;0.10;;;;;;;-1.56;70.84;102878.78;4943724;29;20519;-75
2023/01/27 06:15:42;;;;;;;0.20;0.10;;;;;;;-1.59;71.18;102882.03;4939104;28;20047;-75
2023/01/27 06:18:10;;;;;;;0.52;0.20;;;;;;;-1.62;71.24;102884.38;4935680;28;20051;-75
2023/01/27 06:20:38;;;;;;;0.28;0.10;;;;;;;-1.63;71.09;102887.72;4938301;28;20094;-75
2023/01/27 06:23:05;;;;;;;1.20;0.13;;;;;;;-1.65;70.55;102884.19;4938230;29;20040;-75
2023/01/27 06:25:37;;;;;;;0.20;0.10;;;;;;;-1.64;70.92;102891.06;4934564;28;20407;-75
2023/01/27 06:28:04;;;;;;;1.95;0.13;;;;;;;-1.68;70.86;102896.81;4938369;28;20054;-75
2023/01/27 06:30:31;;;;;;;0.43;0.20;;;;;;;-1.71;70.88;102888.88;4936764;28;20047;-76
2023/01/27 06:32:58;;;;;;;0.75;0.10;;;;;;;-1.75;71.35;102878.34;4938902;28;20046;-75
2023/01/27 06:35:27;;;;;;;0.88;0.10;;;;;;;-1.69;70.77;102897.56;4942867;28;20054;-75
2023/01/27 06:37:54;;;;;;;0.35;0.20;;;;;;;-1.72;71.27;102892.25;4937840;29;20048;-76
2023/01/27 06:40:21;;;;;;;1.80;0.10;;;;;;;-1.72;71.13;102901.63;4940388;28;20052;-75
2023/01/27 06:42:48;;;;;;;1.00;0.15;;;;;;;-1.74;71.14;102901.50;4935267;28;20052;-75
2023/01/27 06:45:15;;;;;;;0.28;0.20;;;;;;;-1.74;71.00;102908.31;4942577;29;20048;-76
2023/01/27 06:47:42;;;;;;;0.85;0.30;;;;;;;-1.77;71.05;102902.97;4941307;28;20130;-76
2023/01/27 06:50:11;;;;;;;1.35;0.30;;;;;;;-1.76;71.13;102897.97;4946260;28;20053;-76
2023/01/27 06:52:41;;;;;;;1.80;0.20;;;;;;;-1.76;70.95;102907.34;4945037;29;20048;-73
2023/01/27 06:55:08;;;;;;;2.53;0.20;;;;;;;-1.79;71.31;102910.59;4939899;28;20050;-73
2023/01/27 06:57:35;;;;;;;0.68;0.20;;;;;;;-1.79;70.97;102920.84;4942787;28;20053;-72
2023/01/27 07:00:04;;;;;;;0.73;0.20;;;;;;;-1.81;71.08;102917.28;4942548;29;20061;-73
2023/01/27 07:02:31;;;;;;;2.05;0.43;;;;;;;-1.79;71.27;102922.47;4946285;28;20134;-73
2023/01/27 07:04:58;;;;;;;2.00;0.20;;;;;;;-1.82;70.60;102916.38;4946846;28;20488;-72
2023/01/27 07:07:25;;;;;;;1.25;0.20;;;;;;;-1.83;71.22;102914.59;4944236;28;20044;-74
2023/01/27 07:09:53;;;;;;;1.00;0.25;;;;;;;-1.89;70.84;102914.19;4946560;28;20042;-78
2023/01/27 07:12:20;;;;;;;0.50;0.20;;;;;;;-1.87;71.05;102932.25;4945169;29;20051;-76
2023/01/27 07:14:47;;;;;;;0.68;0.30;;;;;;;-1.89;71.23;102923.56;4944453;29;20051;-76
2023/01/27 07:17:14;;;;;;;2.83;0.50;;;;;;;-1.90;71.08;102932.03;4944796;29;20044;-76
2023/01/27 07:19:41;;;;;;;4.10;0.30;;;;;;;-1.91;71.09;102930.25;4943468;28;20061;-75
2023/01/27 07:22:08;;;;;;;1.42;0.40;;;;;;;-1.92;71.28;102934.47;4944360;28;20504;-75
2023/01/27 07:24:35;;;;;;;3.80;0.30;;;;;;;-1.92;71.12;102925.91;4943099;28;20047;-72
2023/01/27 07:27:03;;;;;;;0.40;0.22;;;;;;;-1.94;71.14;102930.03;4942139;28;20051;-72
2023/01/27 07:29:31;;;;;;;3.13;0.30;;;;;;;-1.93;71.18;102936.97;4945308;29;20054;-72
2023/01/27 07:31:57;;;;;;;1.02;0.38;;;;;;;-1.93;71.42;102936.97;4938883;28;20480;-72
2023/01/27 07:34:24;;;;;;;2.65;0.30;;;;;;;-1.93;70.91;102947.19;4941945;29;20048;-74
2023/01/27 07:36:52;;;;;;;0.47;0.28;;;;;;;-1.94;71.21;102945.41;4943744;28;20051;-73
2023/01/27 07:39:19;;;;;;;3.08;0.38;;;;;;;-1.95;71.13;102944.53;4943179;28;20081;-74
2023/01/27 07:41:49;;;;;;;1.08;0.30;;;;;;;-1.96;71.38;102939.31;4945574;28;20402;-74
2023/01/27 07:44:17;;;;;;;2.65;0.30;;;;;;;-1.97;71.38;102942.63;4941594;28;20051;-73
2023/01/27 07:46:44;;;;;;;1.58;0.20;;;;;;;-1.95;71.48;102938.53;4942525;29;20519;-74
2023/01/27 07:49:11;;;;;;;1.38;0.20;;;;;;;-1.96;71.24;102941.88;4946037;28;20043;-76
2023/01/27 07:51:38;;;;;;;0.52;0.20;;;;;;;-2.01;70.96;102940.66;4944830;28;20134;-76
2023/01/27 07:54:05;;;;;;;2.05;0.20;;;;;;;-1.98;71.31;102938.31;4943536;28;20047;-78
2023/01/27 07:56:35;;;;;;;0.90;0.30;;;;;;;-1.95;71.12;102948.75;4948760;28;20055;-74
2023/01/27 07:59:02;;;;;;;0.40;0.30;;;;;;;-1.96;71.27;102941.88;4942959;28;20058;-74
2023/01/27 08:01:31;;;;;;;0.60;0.30;;;;;;;-1.97;71.14;102945.19;4945639;28;20420;-76
2023/01/27 08:03:58;;;;;;;1.30;0.50;;;;;;;-2.06;71.72;102924.97;4946255;28;20102;-75
2023/01/27 08:06:25;;;;;;;2.67;0.80;;;;;;;-1.98;71.26;102940.88;4945553;28;20139;-75
2023/01/27 08:08:53;;;;;;;0.60;0.20;;;;;;;-2.10;71.44;102923.91;4943230;28;20416;-75
2023/01/27 08:11:19;;;;;;;2.22;0.30;;;;;;;-1.99;71.83;102940.00;4944316;28;21393;-75
2023/01/27 08:13:46;;;;;;;1.13;0.45;;;;;;;-1.98;71.18;102934.06;4944654;28;20059;-76
2023/01/27 08:16:15;;;;;;;0.60;0.40;;;;;;;-1.98;71.21;102928.06;4942929;28;20419;-76
2023/01/27 08:18:43;;;;;;;3.50;0.30;;;;;;;-2.05;71.12;102922.53;4945363;28;20058;-77
2023/01/27 08:21:12;;;;;;;3.75;0.30;;;;;;;-1.97;71.31;102932.41;4947257;28;20070;-75
2023/01/27 08:23:39;;;;;;;0.50;0.20;;;;;;;-2.00;71.43;102932.19;4944799;28;20051;-76
2023/01/27 08:26:07;;;;;;;4.05;0.22;;;;;;;-1.98;71.49;102934.06;4941394;28;21243;-76
2023/01/27 08:28:37;;;;;;;1.20;0.30;;;;;;;-1.97;71.60;102934.97;4939405;28;20147;-75
2023/01/27 08:31:05;;;;;;;2.63;0.40;;;;;;;-1.96;71.74;102929.06;4940867;28;20094;-76
2023/01/27 08:33:32;;;;;;;1.42;0.20;;;;;;;-1.96;71.47;102940.19;4943235;28;20503;-75
2023/01/27 08:36:05;;;;;;;4.32;0.40;;;;;;;-1.95;71.71;102926.59;4944128;28;20051;-76
2023/01/27 08:38:34;;;;;;;0.80;0.30;;;;;;;-1.94;71.20;102938.59;4940179;28;20134;-75
2023/01/27 08:41:04;;;;;;;3.30;0.60;;;;;;;-1.94;71.65;102941.16;4944224;28;20052;-75
2023/01/27 08:43:31;;;;;;;2.67;0.40;;;;;;;-1.92;71.51;102939.59;4941696;28;20055;-75
2023/01/27 08:45:59;;;;;;;1.02;0.30;;;;;;;-1.91;71.76;102940.47;4941155;28;20046;-76
2023/01/27 08:48:27;;;;;;;1.27;0.30;;;;;;;-1.90;71.64;102939.72;4943660;28;20130;-76
2023/01/27 08:50:54;;;;;;;1.20;0.30;;;;;;;-1.88;72.04;102935.56;4938416;28;20054;-76
2023/01/27 08:53:23;;;;;;;1.75;0.63;;;;;;;-1.88;71.54;102935.56;4941784;29;20087;-76
2023/01/27 08:55:50;;;;;;;3.00;0.40;;;;;;;-1.94;71.49;102919.78;4941846;28;20055;-75
2023/01/27 08:58:17;;;;;;;1.02;0.30;;;;;;;-2.18;71.71;102881.53;4945376;28;20484;-76
2023/01/27 09:00:44;;;;;;;7.53;1.65;;;;;;;-1.84;71.55;102947.81;4950329;28;20054;-77
2023/01/27 09:03:12;;;;;;;6.18;0.30;;;;;;;-1.83;71.98;102944.44;4947430;28;20134;-76
2023/01/27 09:05:40;;;;;;;0.80;0.30;;;;;;;-1.83;71.48;102934.22;4943021;29;20058;-76
2023/01/27 09:08:08;;;;;;;1.77;0.70;;;;;;;-1.79;71.49;102936.22;4944104;28;20051;-75
2023/01/27 09:10:39;;;;;;;1.92;0.47;;;;;;;-1.78;71.76;102943.09;4942454;28;20043;-75
2023/01/27 09:13:05;;;;;;;1.38;0.38;;;;;;;-1.75;71.73;102938.16;4941919;28;20055;-76
2023/01/27 09:15:34;;;;;;;2.05;0.30;;;;;;;-1.73;72.04;102946.84;4943487;28;20043;-75
2023/01/27 09:18:01;;;;;;;1.55;0.30;;;;;;;-1.70;71.85;102936.81;4944763;28;20051;-75
2023/01/27 09:20:28;;;;;;;3.35;0.55;;;;;;;-1.68;71.79;102950.63;4941069;29;20077;-73
2023/01/27 09:22:55;;;;;;;2.47;0.40;;;;;;;-1.66;72.31;102941.34;4945044;29;21936;-73
2023/01/27 09:25:22;;;;;;;0.98;0.30;;;;;;;-1.68;71.80;102930.13;4941774;28;20047;-75
2023/01/27 09:27:54;;;;;;;2.67;1.45;;;;;;;-1.60;71.92;102948.53;4941500;28;20060;-75
2023/01/27 09:30:21;;;;;;;0.70;0.25;;;;;;;-1.58;71.96;102940.16;4943553;28;20075;-75
2023/01/27 09:32:49;;;;;;;2.33;0.40;;;;;;;-1.58;71.86;102927.34;4941103;28;20579;-74
2023/01/27 09:35:16;;;;;;;1.40;0.30;;;;;;;-1.51;71.38;102933.75;4944905;28;20470;-75
2023/01/27 09:37:47;;;;;;;1.05;0.30;;;;;;;-1.49;71.94;102928.75;4944685;28;20051;-75
2023/01/27 09:40:27;;;;;;;2.40;0.30;;;;;;;-1.48;72.16;102934.00;4944984;29;20047;-75
2023/01/27 09:43:29;;;;;;;2.70;0.30;;;;;;;-1.42;71.95;102938.63;4939446;28;20066;-75
2023/01/27 09:46:27;;;;;;;0.80;0.30;;;;;;;-1.40;72.14;102932.78;4944262;29;20054;-71
2023/01/27 09:49:21;;;;;;;5.65;0.50;;;;;;;-1.39;72.25;102926.00;4933823;28;20050;-73
2023/01/27 09:52:02;;;;;;;1.23;0.38;;;;;;;-1.34;71.66;102916.91;4940707;28;20130;-74
2023/01/27 09:54:45;;;;;;;4.30;0.30;;;;;;;-1.31;72.17;102921.34;4938087;28;20039;-72
2023/01/27 09:57:18;;;;;;;0.75;0.30;;;;;;;-1.29;71.81;102935.16;4937728;28;20048;-71
2023/01/27 10:00:09;;;;;;;8.68;0.35;;;;;;;-1.26;71.90;102935.34;4943915;28;20057;-72
2023/01/27 10:03:02;;;;;;;1.63;0.30;;;;;;;-1.23;71.94;102928.75;4940364;28;20059;-74
2023/01/27 10:05:42;;;;;;;2.15;0.30;;;;;;;-1.20;72.14;102915.22;4933703;28;20058;-74
2023/01/27 10:08:32;;;;;;;1.50;0.40;;;;;;;-1.17;72.20;102926.59;4935715;28;20058;-74
2023/01/27 10:11:13;;;;;;;1.95;0.30;;;;;;;-1.15;71.59;102922.44;4939558;28;20050;-72
2023/01/27 10:13:50;;;;;;;3.90;0.32;;;;;;;-1.11;71.89;102930.31;4941324;28;20048;-72
2023/01/27 10:16:38;;;;;;;1.63;0.20;;;;;;;-1.13;71.99;102926.00;4940114;28;20047;-72
2023/01/27 10:19:22;;;;;;;1.77;0.40;;;;;;;-1.06;72.17;102926.38;4940259;28;20047;-72
2023/01/27 10:21:57;;;;;;;1.38;0.30;;;;;;;-1.05;72.36;102929.06;4940592;28;20128;-72
2023/01/27 10:24:36;;;;;;;0.68;0.20;;;;;;;-1.02;71.82;102936.06;4936652;28;20050;-72
2023/01/27 10:27:10;;;;;;;2.25;0.55;;;;;;;-1.00;72.25;102937.00;4938067;28;20052;-72
2023/01/27 10:29:44;;;;;;;2.10;0.20;;;;;;;-0.98;71.63;102928.63;4941076;28;20058;-72
2023/01/27 10:32:23;;;;;;;4.35;0.30;;;;;;;-0.97;71.78;102919.25;4939725;28;20783;-72
2023/01/27 10:35:09;;;;;;;0.43;0.22;;;;;;;-0.98;71.66;102907.22;4939614;28;20047;-72
2023/01/27 10:37:47;;;;;;;11.38;0.30;;;;;;;-0.89;71.82;102922.31;4941752;29;20052;-72
2023/01/27 10:40:20;;;;;;;1.95;0.30;;;;;;;-0.87;72.16;102920.75;4938811;28;20472;-72
2023/01/27 10:42:55;;;;;;;2.53;0.20;;;;;;;-0.85;71.61;102924.25;4940272;28;20062;-72
2023/01/27 10:45:30;;;;;;;4.57;0.35;;;;;;;-0.82;71.50;102930.50;4940035;29;20151;-72
2023/01/27 10:48:17;;;;;;;2.08;0.40;;;;;;;-0.79;71.50;102920.41;4940875;28;20507;-72
2023/01/27 10:50:49;;;;;;;4.28;0.40;;;;;;;-0.78;71.78;102911.91;4941369;29;20059;-72
2023/01/27 10:53:24;;;;;;;2.45;1.15;;;;;;;-0.75;72.27;102917.25;4937561;28;21563;-72
2023/01/27 10:56:01;;;;;;;3.92;0.30;;;;;;;-0.73;72.07;102913.09;4936987;28;20050;-72
2023/01/27 10:58:40;;;;;;;2.63;0.30;;;;;;;-0.70;71.40;102912.41;4945595;28;20054;-72
2023/01/27 11:01:11;;;;;;;1.38;0.30;;;;;;;-0.69;71.48;102902.22;4938797;28;20611;-72
2023/01/27 11:03:44;;;;;;;2.85;0.30;;;;;;;-0.65;71.51;102907.56;4939239;28;20418;-72
2023/01/27 11:06:16;;;;;;;2.78;0.40;;;;;;;-0.64;71.63;102906.75;4939942;29;20048;-72
2023/01/27 11:08:47;;;;;;;3.33;0.40;;;;;;;-0.61;71.18;102904.38;4938194;29;20050;-72
2023/01/27 11:14:12;;;;;;;2.72;0.65;;;;;;;-0.56;71.70;102900.41;4942171;29;20066;-73
2023/01/27 11:16:43;;;;;;;1.90;0.30;;;;;;;-0.54;71.75;102904.84;4938860;28;20142;-73
2023/01/27 11:19:18;;;;;;;1.75;0.30;;;;;;;-0.53;71.66;102898.03;4937940;28;20485;-72
2023/01/27 11:21:45;;;;;;;4.57;0.65;;;;;;;-0.49;72.12;102894.84;4939926;29;20077;-72
2023/01/27 11:24:26;;;;;;;3.15;0.30;;;;;;;-0.47;71.23;102893.28;4941812;29;20170;-72
2023/01/27 11:27:01;;;;;;;7.10;0.88;;;;;;;-0.46;71.69;102889.91;4941360;28;20051;-72
2023/01/27 11:29:36;;;;;;;9.98;1.40;;;;;;;-0.51;71.85;102873.34;4940175;28;20062;-72
2023/01/27 11:32:13;;;;;;;4.32;0.63;;;;;;;-0.41;71.33;102887.63;4937253;28;20055;-72
2023/01/27 11:34:46;;;;;;;7.18;0.98;;;;;;;-0.38;71.93;102887.81;4938625;28;20047;-73
2023/01/27 11:37:19;;;;;;;5.32;1.73;;;;;;;-0.41;72.19;102875.66;4945644;28;20053;-72
2023/01/27 11:39:47;;;;;;;4.90;1.05;;;;;;;-0.40;71.73;102872.28;4946583;28;20058;-73
2023/01/27 11:42:15;;;;;;;7.05;2.20;;;;;;;-0.32;71.33;102877.88;4941743;28;20090;-73
2023/01/27 11:44:43;;;;;;;7.00;1.48;;;;;;;-0.30;71.68;102884.91;4940943;28;20417;-72
2023/01/27 11:47:20;;;;;;;5.63;1.10;;;;;;;-0.27;71.84;102877.38;4941491;28;20044;-72
2023/01/27 11:49:51;;;;;;;3.75;1.23;;;;;;;-0.25;71.58;102873.22;4944062;28;20066;-72
2023/01/27 11:52:19;;;;;;;3.85;0.70;;;;;;;-0.22;71.27;102879.34;4940097;28;20056;-72
2023/01/27 11:54:51;;;;;;;5.25;1.15;;;;;;;-0.20;72.00;102867.47;4941891;28;20054;-72
2023/01/27 11:57:21;;;;;;;18.58;4.80;;;;;;;-0.18;71.86;102879.59;4942139;29;20050;-71
2023/01/27 11:59:51;;;;;;;25.60;8.55;;;;;;;-0.16;71.62;102869.44;4944163;28;20180;-74
2023/01/27 12:02:26;;;;;;;19.02;6.68;;;;;;;-0.13;71.72;102875.63;4945852;28;20070;-74
2023/01/27 12:04:59;;;;;;;9.13;3.17;;;;;;;-0.10;71.43;102869.78;4942929;28;20093;-73
2023/01/27 12:07:39;;;;;;;4.25;1.58;;;;;;;-0.08;71.66;102868.19;4946255;28;20611;-73